Time;durP1;ratioP1;P1;durP2;ratioP2;P2;SDS_P1;SDS_P2;PMS_P1;PMS_P2;Temp;Humidity;BMP_temperature;BMP_pressure;BME280_temperature;BME280_humidity;BME280_pressure;Samples;Min_cycle;Max_cycle;Signal;HPM_P1;HPM_P2
2022/04/10 00:01:49;;;;;;;;;6.00;5.00;;;;;18.66;33.39;101568.03;4973542;28;45458;-55
2022/04/10 00:04:14;;;;;;;;;5.00;5.00;;;;;18.68;33.24;101568.84;4973645;28;45405;-57
2022/04/10 00:06:42;;;;;;;;;4.00;4.00;;;;;18.68;33.51;101566.22;4972738;28;45612;-57
2022/04/10 00:09:08;;;;;;;;;4.25;4.25;;;;;18.68;33.67;101568.84;4973355;28;45319;-58
2022/04/10 00:11:33;;;;;;;;;5.00;5.00;;;;;18.68;33.65;101564.44;4973484;28;45312;-55
2022/04/10 00:13:58;;;;;;;;;6.50;6.50;;;;;18.66;33.71;101547.88;4973526;28;45327;-55
2022/04/10 00:16:24;;;;;;;;;5.25;5.25;;;;;18.68;33.44;101553.09;4974092;28;45608;-60
2022/04/10 00:18:49;;;;;;;;;4.50;4.00;;;;;18.67;33.43;101554.00;4973105;28;45263;-56
2022/04/10 00:21:14;;;;;;;;;8.50;5.00;;;;;18.67;33.43;101548.75;4973416;28;45482;-59
2022/04/10 00:23:40;;;;;;;;;5.00;5.00;;;;;18.66;33.65;101544.41;4973436;28;46356;-61
2022/04/10 00:26:05;;;;;;;;;3.75;3.75;;;;;18.65;33.53;101548.78;4973566;28;45650;-58
2022/04/10 00:28:31;;;;;;;;;4.00;4.00;;;;;18.65;33.54;101550.56;4973056;28;45426;-60
2022/04/10 00:30:56;;;;;;;;;5.75;3.00;;;;;18.66;33.57;101552.28;4973108;28;45421;-58
2022/04/10 00:33:22;;;;;;;;;5.75;4.00;;;;;18.65;33.47;101551.41;4975951;28;45531;-59
2022/04/10 00:35:48;;;;;;;;;4.00;4.00;;;;;18.65;33.64;101542.69;4976516;28;45540;-61
2022/04/10 00:38:13;;;;;;;;;5.25;5.25;;;;;18.64;33.65;101540.97;4975879;28;47006;-59
2022/04/10 00:40:39;;;;;;;;;4.25;3.75;;;;;18.65;33.63;101553.19;4975989;28;45440;-55
2022/04/10 00:43:04;;;;;;;;;6.25;5.00;;;;;18.65;33.73;101548.78;4976190;28;45280;-60
2022/04/10 00:45:30;;;;;;;;;5.50;5.00;;;;;18.63;33.56;101544.50;4976129;28;45487;-59
2022/04/10 00:47:55;;;;;;;;;5.00;4.00;;;;;18.65;33.53;101545.31;4976359;28;46015;-55
2022/04/10 00:50:20;;;;;;;;;6.75;5.00;;;;;18.64;33.31;101546.22;4976131;28;45485;-58
2022/04/10 00:52:48;;;;;;;;;3.75;3.75;;;;;18.64;33.63;101552.31;4976072;28;45235;-59
2022/04/10 00:55:14;;;;;;;;;4.00;4.00;;;;;18.64;33.47;101548.84;4976466;28;45478;-60
2022/04/10 00:57:40;;;;;;;;;5.50;5.50;;;;;18.63;33.76;101545.34;4975965;28;45412;-57
2022/04/10 01:00:12;;;;;;;;;3.75;3.00;;;;;18.63;33.61;101552.38;4975983;28;45197;-60
2022/04/10 01:02:39;;;;;;;;;4.00;4.00;;;;;18.63;33.59;101547.13;4974823;28;45370;-57
2022/04/10 01:05:05;;;;;;;;;4.75;4.00;;;;;18.62;33.82;101546.28;4976197;28;45236;-61
2022/04/10 01:07:30;;;;;;;;;4.00;4.00;;;;;18.63;33.54;101550.59;4975805;28;45316;-58
2022/04/10 01:09:56;;;;;;;;;6.00;4.00;;;;;18.64;33.55;101544.44;4976343;28;45486;-57
2022/04/10 01:12:22;;;;;;;;;5.75;4.00;;;;;18.63;33.44;101549.75;4976075;28;45304;-57
2022/04/10 01:14:48;;;;;;;;;5.00;5.00;;;;;18.61;33.45;101546.31;4976097;28;45310;-58
2022/04/10 01:17:14;;;;;;;;;5.00;4.00;;;;;18.62;33.52;101548.03;4975642;28;46226;-59
2022/04/10 01:19:41;;;;;;;;;4.75;4.75;;;;;18.62;33.59;101545.41;4975532;28;45807;-58
2022/04/10 01:22:08;;;;;;;;;3.00;3.00;;;;;18.63;33.80;101547.13;4974448;28;45364;-61
2022/04/10 01:24:43;;;;;;;;;4.50;4.50;;;;;18.62;33.79;101550.66;4975814;28;45550;-60
2022/04/10 01:27:08;;;;;;;;;5.25;4.00;;;;;18.62;33.45;101550.66;4975632;28;46643;-60
2022/04/10 01:29:34;;;;;;;;;6.25;6.25;;;;;18.61;34.01;101549.81;4975595;28;45247;-60
2022/04/10 01:31:59;;;;;;;;;4.00;4.00;;;;;18.62;33.74;101548.03;4975804;28;45277;-59
2022/04/10 01:34:25;;;;;;;;;4.75;4.75;;;;;18.61;33.54;101549.81;4974984;28;45596;-60
2022/04/10 01:36:50;;;;;;;;;4.75;4.75;;;;;18.61;33.43;101549.81;4975551;28;46187;-61
2022/04/10 01:39:16;;;;;;;;;5.25;5.25;;;;;18.60;33.63;101555.09;4975549;28;45247;-62
2022/04/10 01:41:42;;;;;;;;;5.25;4.75;;;;;18.61;33.64;101543.69;4975679;28;45391;-60
2022/04/10 01:44:09;;;;;;;;;7.75;6.25;;;;;18.60;33.46;101545.47;4975222;28;45315;-58
2022/04/10 01:46:35;;;;;;;;;5.50;4.25;;;;;18.59;33.69;101546.38;4975304;28;46843;-58
2022/04/10 01:49:01;;;;;;;;;5.50;5.50;;;;;18.60;33.53;101547.22;4975328;28;45931;-59
2022/04/10 01:51:27;;;;;;;;;5.00;5.00;;;;;18.59;33.80;101538.50;4975842;28;45364;-57
2022/04/10 01:53:53;;;;;;;;;5.25;5.25;;;;;18.58;33.67;101534.16;4975619;28;45640;-59
2022/04/10 01:56:19;;;;;;;;;4.00;4.00;;;;;18.58;33.73;101534.16;4975264;28;45296;-58
2022/04/10 01:58:47;;;;;;;;;4.00;4.00;;;;;18.59;33.67;101535.88;4975321;28;45238;-56
2022/04/10 02:01:14;;;;;;;;;5.50;5.00;;;;;18.58;33.58;101528.91;4975457;28;45289;-61
2022/04/10 02:03:40;;;;;;;;;6.50;5.25;;;;;18.57;33.64;101531.59;4975487;28;45426;-59
2022/04/10 02:06:08;;;;;;;;;5.00;5.00;;;;;18.58;33.87;101530.66;4975209;28;45422;-59
2022/04/10 02:08:35;;;;;;;;;4.25;4.25;;;;;18.58;33.70;101534.16;4975346;28;45795;-58
2022/04/10 02:11:08;;;;;;;;;6.00;5.00;;;;;18.56;33.82;101535.97;4975263;28;45291;-57
2022/04/10 02:13:33;;;;;;;;;6.50;4.25;;;;;18.57;33.40;101526.34;4975347;28;45523;-58
2022/04/10 02:15:58;;;;;;;;;4.00;4.00;;;;;18.56;33.70;101529.88;4975160;28;50069;-59
2022/04/10 02:18:24;;;;;;;;;5.00;5.00;;;;;18.56;33.88;101524.63;4974796;28;45349;-56
2022/04/10 02:20:49;;;;;;;;;7.75;5.00;;;;;18.56;33.92;101524.63;4975163;28;45399;-58
2022/04/10 02:23:15;;;;;;;;;5.75;5.25;;;;;18.57;33.52;101531.59;4974994;28;45234;-56
2022/04/10 02:25:43;;;;;;;;;5.25;5.25;;;;;18.56;33.56;101535.13;4974763;28;45406;-61
2022/04/10 02:28:08;;;;;;;;;4.75;4.75;;;;;18.56;33.62;101524.63;4974879;28;45268;-60
2022/04/10 02:30:33;;;;;;;;;5.00;5.00;;;;;18.56;33.71;101530.72;4974999;28;45338;-59
2022/04/10 02:32:59;;;;;;;;;5.00;5.00;;;;;18.55;33.55;101534.25;4975343;28;45425;-60
2022/04/10 02:35:24;;;;;;;;;4.00;4.00;;;;;18.56;33.70;101533.34;4974632;28;45914;-60
2022/04/10 02:37:49;;;;;;;;;5.25;5.25;;;;;18.56;33.62;101535.13;4974741;28;45463;-60
2022/04/10 02:40:15;;;;;;;;;5.50;4.50;;;;;18.57;33.64;101531.59;4974598;28;47796;-59
2022/04/10 02:42:41;;;;;;;;;6.50;4.00;;;;;18.56;33.91;101537.75;4974954;28;45421;-58
2022/04/10 02:45:07;;;;;;;;;5.50;5.50;;;;;18.56;33.74;101535.13;4974634;28;46202;-61
2022/04/10 02:47:33;;;;;;;;;6.00;5.00;;;;;18.56;33.68;101537.75;4974596;28;45417;-60
2022/04/10 02:49:59;;;;;;;;;6.50;6.50;;;;;18.55;33.80;101544.78;4975260;28;45406;-61
2022/04/10 02:52:24;;;;;;;;;5.50;5.50;;;;;18.54;33.79;101545.69;4974915;28;45178;-60
2022/04/10 02:54:49;;;;;;;;;4.00;4.00;;;;;18.54;33.66;101540.44;4973388;28;46083;-60
2022/04/10 02:57:15;;;;;;;;;6.00;6.00;;;;;18.54;33.83;101537.81;4974609;28;45264;-61
2022/04/10 02:59:40;;;;;;;;;5.00;5.00;;;;;18.53;33.77;101530.84;4974815;28;45341;-60
2022/04/10 03:02:06;;;;;;;;;4.75;3.75;;;;;18.54;33.88;101536.06;4974713;28;45330;-59
2022/04/10 03:04:31;;;;;;;;;5.00;5.00;;;;;18.53;33.76;101536.97;4973484;28;48257;-57
2022/04/10 03:06:57;;;;;;;;;7.00;7.00;;;;;18.54;33.85;101537.81;4974375;28;45345;-57
2022/04/10 03:09:22;;;;;;;;;4.00;4.00;;;;;18.52;33.97;101540.50;4974711;28;45417;-56
2022/04/10 03:11:47;;;;;;;;;8.00;6.75;;;;;18.52;33.65;101540.50;4973387;28;45503;-58
2022/04/10 03:14:13;;;;;;;;;5.75;5.75;;;;;18.52;33.74;101539.66;4974345;28;46303;-57
2022/04/10 03:16:38;;;;;;;;;5.50;4.25;;;;;18.52;34.10;101547.53;4974211;28;45387;-60
2022/04/10 03:19:04;;;;;;;;;5.75;5.00;;;;;18.52;33.97;101543.13;4974322;28;45307;-58
2022/04/10 03:21:29;;;;;;;;;6.00;5.00;;;;;18.51;33.98;101544.03;4974793;28;45343;-56
2022/04/10 03:23:55;;;;;;;;;4.25;4.25;;;;;18.51;33.79;101545.81;4973923;28;45489;-61
2022/04/10 03:26:20;;;;;;;;;6.50;6.00;;;;;18.51;33.77;101551.91;4974204;28;45516;-61
2022/04/10 03:28:45;;;;;;;;;4.50;4.50;;;;;18.51;33.99;101549.28;4974226;28;45452;-60
2022/04/10 03:31:11;;;;;;;;;5.00;5.00;;;;;18.50;33.84;101547.56;4974272;28;45737;-60
2022/04/10 03:33:36;;;;;;;;;7.75;6.00;;;;;18.51;33.78;101551.06;4974037;28;46018;-61
2022/04/10 03:36:02;;;;;;;;;9.00;7.00;;;;;18.50;34.11;101552.81;4974195;28;45391;-59
2022/04/10 03:38:27;;;;;;;;;9.00;6.75;;;;;18.50;33.71;101544.94;4974119;28;45268;-58
2022/04/10 03:40:53;;;;;;;;;5.50;5.50;;;;;18.50;33.97;101547.56;4974162;28;45244;-61
2022/04/10 03:43:19;;;;;;;;;5.00;5.00;;;;;18.50;33.83;101550.19;4973898;28;45223;-59
2022/04/10 03:45:44;;;;;;;;;5.00;3.75;;;;;18.52;33.79;101553.63;4972683;28;45786;-61
2022/04/10 03:48:10;;;;;;;;;4.00;4.00;;;;;18.51;33.97;101551.91;4973816;28;48469;-61
2022/04/10 03:50:35;;;;;;;;;4.25;4.00;;;;;18.51;33.75;101557.16;4974042;28;45624;-59
2022/04/10 03:53:02;;;;;;;;;6.00;6.00;;;;;18.50;33.95;101550.19;4973863;28;45383;-59
2022/04/10 03:55:27;;;;;;;;;5.00;5.00;;;;;18.50;33.50;101552.81;4973477;28;45427;-61
2022/04/10 03:57:53;;;;;;;;;4.25;4.25;;;;;18.51;34.01;101551.06;4973774;28;45341;-60
2022/04/10 04:00:19;;;;;;;;;4.00;4.00;;;;;18.50;33.68;101552.81;4973917;28;45389;-59
2022/04/10 04:02:45;;;;;;;;;5.25;5.25;;;;;18.50;33.84;101550.19;4972158;28;45534;-57
2022/04/10 04:05:10;;;;;;;;;6.00;5.00;;;;;18.49;33.89;101551.09;4972147;28;45433;-61
2022/04/10 04:07:36;;;;;;;;;5.75;5.75;;;;;18.50;33.80;101552.81;4976203;28;45456;-62
2022/04/10 04:10:03;;;;;;;;;6.25;4.50;;;;;18.49;34.00;101545.00;4977135;28;45500;-64
2022/04/10 04:12:28;;;;;;;;;7.50;7.00;;;;;18.48;33.89;101546.75;4976526;28;46138;-60
2022/04/10 04:14:54;;;;;;;;;5.00;5.00;;;;;18.48;33.85;101538.88;4976456;28;45387;-60
2022/04/10 04:17:19;;;;;;;;;6.50;6.50;;;;;18.48;34.12;101546.75;4975165;28;45508;-57
2022/04/10 04:19:49;;;;;;;;;7.75;6.75;;;;;18.50;34.18;101542.31;4976594;28;45501;-60
2022/04/10 04:22:15;;;;;;;;;7.75;6.00;;;;;18.54;34.11;101543.94;4975003;28;46990;-60
2022/04/10 04:24:40;;;;;;;;;7.00;7.00;;;;;18.59;34.04;101551.63;4976348;28;45327;-58
2022/04/10 04:27:06;;;;;;;;;9.00;7.75;;;;;18.63;34.05;101544.50;4975493;28;45422;-59
2022/04/10 04:29:31;;;;;;;;;7.00;6.25;;;;;18.71;34.03;101558.19;4976516;28;45524;-58
2022/04/10 04:31:56;;;;;;;;;6.00;6.00;;;;;18.79;33.95;101560.56;4976363;28;45296;-57
2022/04/10 04:34:22;;;;;;;;;7.00;7.00;;;;;18.85;33.99;101558.56;4976160;28;45361;-60
2022/04/10 04:36:47;;;;;;;;;7.00;5.25;;;;;18.93;34.07;101560.94;4976472;28;45323;-58
2022/04/10 04:39:13;;;;;;;;;9.25;7.50;;;;;18.99;33.91;101565.13;4976326;28;45620;-59
2022/04/10 04:41:38;;;;;;;;;6.75;6.25;;;;;19.06;34.02;101561.34;4975968;28;45342;-59
2022/04/10 04:44:04;;;;;;;;;6.00;6.00;;;;;19.12;33.75;101566.38;4976123;28;45412;-60
2022/04/10 04:46:30;;;;;;;;;6.50;6.50;;;;;19.18;33.83;101572.31;4976144;28;45238;-60
2022/04/10 04:48:55;;;;;;;;;11.75;9.75;;;;;19.19;33.57;101574.00;4976140;28;45251;-59
2022/04/10 04:51:21;;;;;;;;;9.00;9.00;;;;;19.21;33.20;101577.44;4975681;28;46276;-59
2022/04/10 04:53:46;;;;;;;;;10.00;8.25;;;;;19.23;32.88;101594.88;4975646;28;45328;-61
2022/04/10 04:56:11;;;;;;;;;10.00;10.00;;;;;19.24;33.30;101595.72;4974606;28;45469;-59
2022/04/10 04:58:37;;;;;;;;;12.25;12.25;;;;;19.25;32.88;101593.03;4976352;28;45470;-60
2022/04/10 05:01:02;;;;;;;;;12.75;10.25;;;;;19.26;32.88;101597.38;4975537;28;46686;-60
2022/04/10 05:03:28;;;;;;;;;7.50;7.50;;;;;19.26;32.63;101602.63;4974540;28;45864;-56
2022/04/10 05:05:53;;;;;;;;;14.25;13.25;;;;;19.25;32.38;101589.53;4975777;28;45361;-55
2022/04/10 05:08:21;;;;;;;;;14.50;13.75;;;;;19.24;32.26;101590.44;4975995;28;45617;-61
2022/04/10 05:10:47;;;;;;;;;10.50;10.50;;;;;19.23;32.42;101594.03;4974237;28;46037;-58
2022/04/10 05:13:12;;;;;;;;;14.75;12.25;;;;;19.20;31.70;101594.13;4975426;28;45317;-55
2022/04/10 05:15:38;;;;;;;;;15.75;15.00;;;;;19.18;31.84;101595.94;4974826;28;45307;-61
2022/04/10 05:18:03;;;;;;;;;15.50;14.75;;;;;19.12;31.70;101597.03;4974622;28;45628;-61
2022/04/10 05:20:29;;;;;;;;;17.25;15.00;;;;;19.09;31.63;101597.13;4975566;28;45282;-59
2022/04/10 05:22:54;;;;;;;;;12.25;12.25;;;;;19.05;31.71;101595.56;4975414;28;45276;-60
2022/04/10 05:25:20;;;;;;;;;18.75;16.75;;;;;18.99;31.61;101592.22;4975426;28;45339;-56
2022/04/10 05:27:45;;;;;;;;;16.50;13.50;;;;;18.97;31.92;101601.09;4975644;28;45592;-58
2022/04/10 05:30:11;;;;;;;;;17.50;15.00;;;;;18.92;31.79;101602.97;4975203;28;51778;-57
2022/04/10 05:32:42;;;;;;;;;15.50;15.25;;;;;18.89;31.75;101605.75;4975564;28;45874;-61
2022/04/10 05:35:08;;;;;;;;;18.25;16.50;;;;;18.84;31.89;101611.16;4975728;28;45349;-60
2022/04/10 05:37:33;;;;;;;;;16.75;14.75;;;;;18.80;31.93;101610.38;4974222;28;45371;-60
2022/04/10 05:39:59;;;;;;;;;14.75;13.25;;;;;18.78;32.24;101614.88;4975192;28;46197;-62
2022/04/10 05:42:24;;;;;;;;;18.00;16.25;;;;;18.78;32.00;101614.88;4975175;28;45405;-62
2022/04/10 05:44:49;;;;;;;;;18.00;16.50;;;;;18.76;31.93;101615.81;4975238;28;45397;-62
2022/04/10 05:47:15;;;;;;;;;17.75;15.75;;;;;18.75;32.21;101621.97;4975233;28;45529;-61
2022/04/10 05:49:40;;;;;;;;;15.50;15.50;;;;;18.75;32.11;101624.59;4975438;28;45344;-60
2022/04/10 05:52:07;;;;;;;;;16.25;14.50;;;;;18.74;32.15;101622.91;4974160;28;45281;-60
2022/04/10 05:54:33;;;;;;;;;15.00;13.25;;;;;18.73;32.08;101629.91;4974013;28;45342;-60
2022/04/10 05:56:58;;;;;;;;;18.25;15.50;;;;;18.73;31.73;101627.28;4975145;28;45478;-62
2022/04/10 05:59:23;;;;;;;;;17.75;15.50;;;;;18.75;31.94;101629.84;4974859;28;45442;-62
2022/04/10 06:01:49;;;;;;;;;19.00;18.50;;;;;18.73;32.10;101629.06;4974944;28;45273;-62
2022/04/10 06:04:14;;;;;;;;;19.50;17.50;;;;;18.75;31.77;101629.84;4974787;28;45502;-60
2022/04/10 06:06:39;;;;;;;;;16.50;16.50;;;;;18.74;31.92;101630.78;4975417;28;45253;-61
2022/04/10 06:09:05;;;;;;;;;19.00;17.00;;;;;18.72;32.13;101629.97;4974749;28;45360;-62
2022/04/10 06:11:30;;;;;;;;;18.75;18.75;;;;;18.73;31.75;101637.78;4974840;28;45787;-61
2022/04/10 06:13:56;;;;;;;;;18.00;17.50;;;;;18.72;31.60;101636.06;4973696;28;45311;-60
2022/04/10 06:16:21;;;;;;;;;21.75;19.00;;;;;18.72;31.78;101643.94;4974964;28;45427;-59
2022/04/10 06:18:46;;;;;;;;;22.25;19.50;;;;;18.70;31.69;101646.63;4974760;28;46453;-60
2022/04/10 06:21:11;;;;;;;;;18.00;18.00;;;;;18.70;31.83;101645.75;4974783;28;45247;-59
2022/04/10 06:23:37;;;;;;;;;21.25;18.25;;;;;18.69;31.93;101644.03;4975242;28;45361;-60
2022/04/10 06:26:05;;;;;;;;;17.33;17.00;;;;;18.68;31.78;101639.72;4975040;28;45627;-60
2022/04/10 06:28:30;;;;;;;;;20.00;17.75;;;;;18.68;31.64;101645.81;4974586;28;46398;-61
2022/04/10 06:30:56;;;;;;;;;21.00;18.75;;;;;18.67;31.75;101638.00;4974518;28;45236;-62
2022/04/10 06:33:21;;;;;;;;;21.25;18.00;;;;;18.66;31.87;101638.94;4974770;28;45329;-62
2022/04/10 06:35:47;;;;;;;;;22.50;21.50;;;;;18.65;31.61;101639.84;4974775;28;45531;-59
2022/04/10 06:38:12;;;;;;;;;14.50;14.00;;;;;18.63;31.70;101637.25;4974612;28;45433;-58
2022/04/10 06:40:38;;;;;;;;;18.75;17.50;;;;;18.63;31.39;101641.66;4974858;28;45311;-57
2022/04/10 06:43:06;;;;;;;;;18.75;18.25;;;;;18.62;31.51;101645.19;4974683;28;45437;-62
2022/04/10 06:45:31;;;;;;;;;19.00;17.75;;;;;18.60;31.71;101639.13;4973542;28;45439;-60
2022/04/10 06:47:57;;;;;;;;;23.50;22.00;;;;;18.58;31.53;101636.56;4972828;28;51599;-59
2022/04/10 06:50:22;;;;;;;;;23.75;19.00;;;;;18.58;31.52;101638.31;4975828;28;45280;-59
2022/04/10 06:52:47;;;;;;;;;19.00;19.00;;;;;18.56;31.61;101635.75;4973171;28;45335;-60
2022/04/10 06:55:13;;;;;;;;;18.00;18.00;;;;;18.56;31.45;101637.53;4973884;28;45573;-59
2022/04/10 06:57:38;;;;;;;;;15.50;12.75;;;;;18.53;31.47;101636.72;4974636;28;45236;-61
2022/04/10 07:00:04;;;;;;;;;20.25;17.50;;;;;18.56;31.65;101638.38;4974391;28;45380;-61
2022/04/10 07:02:31;;;;;;;;;19.50;16.25;;;;;18.56;31.65;101638.38;4974245;28;45249;-59
2022/04/10 07:04:57;;;;;;;;;15.00;14.50;;;;;18.59;31.64;101629.53;4974500;28;45456;-61
2022/04/10 07:07:22;;;;;;;;;19.00;15.33;;;;;18.61;31.74;101636.47;4973937;28;47405;-62
2022/04/10 07:09:47;;;;;;;;;15.33;15.33;;;;;18.63;31.72;101639.03;4974103;28;46892;-60
2022/04/10 07:12:13;;;;;;;;;18.75;16.50;;;;;18.63;31.57;101636.41;4974570;28;45309;-61
2022/04/10 07:14:38;;;;;;;;;17.25;14.50;;;;;18.66;31.85;101637.13;4974399;28;45509;-60
2022/04/10 07:17:04;;;;;;;;;15.75;14.75;;;;;18.66;31.89;101631.88;4974123;28;46005;-60
2022/04/10 07:19:30;;;;;;;;;17.50;15.25;;;;;18.68;32.08;101634.47;4974176;28;45391;-60
2022/04/10 07:24:39;;;;;;;;;15.25;13.75;;;;;18.70;31.99;101636.13;4974232;28;45326;-63
2022/04/10 07:27:05;;;;;;;;;13.00;12.50;;;;;18.72;32.25;101643.94;4973937;28;45344;-60
2022/04/10 07:29:30;;;;;;;;;12.00;11.50;;;;;18.72;32.16;101636.06;4972617;28;45453;-62
2022/04/10 07:31:55;;;;;;;;;14.25;13.50;;;;;18.73;32.32;101645.66;4972710;28;45517;-61
2022/04/10 07:34:21;;;;;;;;;13.50;13.00;;;;;18.75;32.48;101645.59;4974244;28;45449;-62
2022/04/10 07:36:46;;;;;;;;;16.00;12.75;;;;;18.73;32.15;101635.16;4973677;28;46193;-61
2022/04/10 07:39:11;;;;;;;;;12.50;12.50;;;;;18.76;32.01;101642.06;4974136;28;45301;-60
2022/04/10 07:41:37;;;;;;;;;13.25;11.50;;;;;18.76;32.24;101648.19;4977364;28;45274;-57
2022/04/10 07:44:02;;;;;;;;;14.75;13.00;;;;;18.77;32.54;101643.78;4980404;28;45303;-58
2022/04/10 07:49:11;;;;;;;;;10.25;10.25;;;;;18.79;32.57;101647.22;4980502;28;45277;-61
2022/04/10 07:51:37;;;;;;;;;14.75;12.75;;;;;18.79;32.54;101649.84;4980463;28;45374;-62
2022/04/10 07:54:03;;;;;;;;;10.50;10.00;;;;;18.81;32.42;101653.28;4980421;28;45578;-63
2022/04/10 07:56:28;;;;;;;;;10.75;9.25;;;;;18.80;32.44;101651.56;4979881;28;46463;-61
2022/04/10 07:58:53;;;;;;;;;12.50;11.50;;;;;18.82;32.61;101640.09;4980193;28;45254;-62
2022/04/10 08:01:19;;;;;;;;;10.00;9.75;;;;;18.82;32.63;101641.88;4980398;28;45219;-60
2022/04/10 08:03:46;;;;;;;;;3.00;2.00;;;;;18.83;32.45;101649.69;4980598;28;45272;-61
2022/04/10 08:06:11;;;;;;;;;10.50;10.50;;;;;18.83;32.21;101652.31;4979980;28;46172;-62
2022/04/10 08:08:36;;;;;;;;;9.00;9.00;;;;;18.85;32.38;101647.03;4979895;28;48583;-64
2022/04/10 08:11:02;;;;;;;;;10.75;9.75;;;;;18.84;32.42;101648.78;4980021;28;45488;-62
2022/04/10 08:13:27;;;;;;;;;11.00;9.00;;;;;18.85;32.36;101649.66;4980270;28;45429;-62
2022/04/10 08:15:53;;;;;;;;;9.67;8.67;;;;;18.85;32.40;101653.13;4979341;28;51015;-62
2022/04/10 08:18:18;;;;;;;;;10.25;8.00;;;;;18.85;32.49;101649.66;4979709;28;45409;-62
2022/04/10 08:20:43;;;;;;;;;9.50;9.50;;;;;18.86;32.27;101648.72;4980086;28;45730;-62
2022/04/10 08:23:09;;;;;;;;;8.25;8.00;;;;;18.87;32.30;101646.97;4979982;28;45414;-62
2022/04/10 08:25:35;;;;;;;;;12.00;8.50;;;;;18.87;32.18;101649.59;4979636;28;46027;-62
2022/04/10 08:28:00;;;;;;;;;9.50;9.50;;;;;18.86;32.37;101640.84;4979622;28;45345;-62
2022/04/10 08:30:27;;;;;;;;;11.00;10.25;;;;;18.87;32.21;101650.44;4979910;28;45323;-63
2022/04/10 08:32:53;;;;;;;;;8.50;7.25;;;;;18.87;32.36;101650.44;4978531;28;45545;-60
2022/04/10 08:35:18;;;;;;;;;12.75;9.50;;;;;18.88;32.14;101644.25;4979413;28;45455;-61
2022/04/10 08:37:44;;;;;;;;;8.00;7.00;;;;;18.89;32.09;101647.78;4980005;28;45302;-61
2022/04/10 08:40:10;;;;;;;;;11.75;10.25;;;;;18.90;32.22;101638.97;4979603;28;45333;-60
2022/04/10 08:42:36;;;;;;;;;11.75;9.50;;;;;18.91;32.15;101648.53;4979690;28;45484;-61
2022/04/10 08:45:03;;;;;;;;;9.00;8.00;;;;;18.89;32.29;101653.88;4979246;28;46136;-61
2022/04/10 08:47:30;;;;;;;;;8.00;7.00;;;;;18.90;31.95;101650.31;4979417;28;46043;-62
2022/04/10 08:49:56;;;;;;;;;10.50;8.75;;;;;18.90;32.33;101650.31;4980814;28;45476;-61
2022/04/10 08:52:22;;;;;;;;;7.00;6.75;;;;;18.91;32.15;101651.16;4977830;28;45733;-63
2022/04/10 08:54:49;;;;;;;;;8.00;8.00;;;;;18.93;31.86;101651.97;4975813;28;45300;-62
2022/04/10 08:57:14;;;;;;;;;9.50;8.25;;;;;18.92;32.08;101647.63;4976176;28;45962;-58
2022/04/10 08:59:41;;;;;;;;;7.50;7.00;;;;;18.92;32.00;101652.88;4975644;28;45174;-62
2022/04/10 09:02:07;;;;;;;;;8.00;7.75;;;;;18.93;32.00;101657.22;4974430;28;45584;-60
2022/04/10 09:04:32;;;;;;;;;9.75;8.75;;;;;18.93;31.91;101647.63;4975360;28;45362;-63
2022/04/10 09:07:07;;;;;;;;;10.25;8.00;;;;;18.94;31.89;101645.84;4975677;28;45520;-62
2022/04/10 09:09:36;;;;;;;;;7.25;7.25;;;;;18.95;32.00;101658.06;4975920;28;45355;-62
2022/04/10 09:12:03;;;;;;;;;9.00;7.75;;;;;18.95;31.86;101658.06;4976102;28;45630;-63
2022/04/10 09:14:38;;;;;;;;;7.00;7.00;;;;;18.94;31.93;101651.97;4975663;28;45374;-62
2022/04/10 09:17:14;;;;;;;;;7.75;7.25;;;;;18.95;32.05;101658.06;4975549;28;45523;-58
2022/04/10 09:19:48;;;;;;;;;9.00;8.00;;;;;18.95;31.84;101648.44;4975653;28;45229;-62
2022/04/10 09:22:33;;;;;;;;;11.00;8.00;;;;;18.96;32.06;101654.53;4976001;28;45477;-61
2022/04/10 09:25:15;;;;;;;;;7.00;7.00;;;;;18.97;32.11;101651.00;4975636;28;47562;-61
2022/04/10 09:27:45;;;;;;;;;11.25;8.00;;;;;18.98;32.16;101647.47;4975686;28;45330;-58
2022/04/10 09:30:14;;;;;;;;;9.00;6.50;;;;;18.96;31.79;101644.88;4975686;28;45374;-61
2022/04/10 09:32:43;;;;;;;;;8.50;6.00;;;;;18.98;31.83;101647.47;4975829;28;45248;-59
2022/04/10 09:35:11;;;;;;;;;8.50;7.50;;;;;18.98;31.89;101650.09;4975581;28;46142;-59
2022/04/10 09:37:49;;;;;;;;;7.25;6.25;;;;;18.97;31.99;101643.97;4975434;28;45328;-59
2022/04/10 09:40:23;;;;;;;;;7.50;6.25;;;;;18.99;32.02;101649.19;4974379;28;45345;-62
2022/04/10 09:43:04;;;;;;;;;7.00;6.00;;;;;18.98;32.03;101650.09;4975905;28;45585;-60
2022/04/10 09:45:41;;;;;;;;;6.00;5.25;;;;;18.99;31.76;101649.19;4975182;28;45296;-62
2022/04/10 09:48:23;;;;;;;;;6.75;5.75;;;;;19.00;31.98;101650.91;4975319;28;45235;-61
2022/04/10 09:50:59;;;;;;;;;5.25;5.00;;;;;18.99;32.01;101643.94;4974461;28;45336;-63
2022/04/10 09:53:26;;;;;;;;;10.25;7.00;;;;;19.01;31.89;101647.38;4975709;28;45398;-59
2022/04/10 09:55:57;;;;;;;;;5.50;5.50;;;;;18.99;31.87;101644.78;4975441;28;46208;-58
2022/04/10 09:58:24;;;;;;;;;6.75;5.75;;;;;19.00;31.84;101640.41;4975318;28;45332;-61
2022/04/10 10:00:54;;;;;;;;;7.50;6.50;;;;;19.00;32.00;101640.41;4975561;28;45337;-60
2022/04/10 10:03:22;;;;;;;;;5.50;5.50;;;;;19.00;31.85;101643.03;4975817;28;45296;-61
2022/04/10 10:05:49;;;;;;;;;9.50;6.50;;;;;19.00;31.96;101641.25;4975103;28;46047;-59
2022/04/10 10:08:16;;;;;;;;;5.00;5.00;;;;;19.00;31.74;101643.88;4975030;28;45769;-61
2022/04/10 10:10:42;;;;;;;;;8.00;6.00;;;;;19.00;31.78;101633.34;4975450;28;45477;-60
2022/04/10 10:13:08;;;;;;;;;6.00;5.75;;;;;19.02;32.02;101633.28;4975317;28;45343;-60
2022/04/10 10:15:38;;;;;;;;;5.50;4.50;;;;;19.01;31.89;101634.22;4974908;28;46250;-60
2022/04/10 10:18:06;;;;;;;;;8.25;5.00;;;;;19.02;32.02;101627.19;4974844;28;45476;-62
2022/04/10 10:20:33;;;;;;;;;9.25;6.00;;;;;19.02;31.68;101622.78;4975047;28;45314;-63
2022/04/10 10:23:03;;;;;;;;;4.00;4.00;;;;;19.03;31.83;101624.50;4975343;28;45320;-62
2022/04/10 10:25:57;;;;;;;;;5.75;3.75;;;;;19.03;31.90;101623.66;4974739;28;45391;-63
2022/04/10 10:28:46;;;;;;;;;3.25;3.25;;;;;19.03;31.88;101624.50;4975292;28;45370;-63
2022/04/10 10:31:24;;;;;;;;;4.25;4.25;;;;;19.03;31.79;101614.00;4975104;28;45358;-63
2022/04/10 10:33:57;;;;;;;;;5.00;4.00;;;;;19.03;31.69;101619.25;4975465;28;45366;-62
2022/04/10 10:36:26;;;;;;;;;6.00;6.00;;;;;19.03;31.86;101602.63;4975082;28;47149;-63
2022/04/10 10:38:54;;;;;;;;;4.00;4.00;;;;;19.03;31.68;101614.00;4975239;28;45268;-64
2022/04/10 10:41:19;;;;;;;;;5.00;5.00;;;;;19.03;32.02;101606.09;4975320;28;45239;-62
2022/04/10 10:43:46;;;;;;;;;5.00;4.25;;;;;19.04;31.93;101605.19;4974952;28;45227;-61
2022/04/10 10:46:21;;;;;;;;;4.25;4.25;;;;;19.04;31.60;101602.56;4974622;28;46420;-63
2022/04/10 10:48:50;;;;;;;;;5.00;5.00;;;;;19.04;31.86;101602.56;4974551;28;45441;-63
2022/04/10 10:51:15;;;;;;;;;7.25;3.50;;;;;19.04;31.59;101599.94;4974841;28;45356;-60
2022/04/10 10:53:51;;;;;;;;;7.50;4.50;;;;;19.04;31.78;101599.94;4974848;28;45469;-61
2022/04/10 10:56:21;;;;;;;;;4.75;4.75;;;;;19.05;31.80;101604.28;4974709;28;45683;-60
2022/04/10 10:58:48;;;;;;;;;3.25;3.25;;;;;19.05;31.73;101595.56;4974510;28;45425;-62
2022/04/10 11:01:26;;;;;;;;;4.75;4.00;;;;;19.05;31.50;101595.56;4974654;28;45329;-63
2022/04/10 11:04:09;;;;;;;;;3.75;3.75;;;;;19.06;31.80;101594.66;4974969;28;45386;-61
2022/04/10 11:06:45;;;;;;;;;5.75;3.00;;;;;19.06;31.53;101592.03;4974752;28;45397;-60
2022/04/10 11:09:22;;;;;;;;;4.00;4.00;;;;;19.04;31.95;101584.19;4974413;28;45355;-62
2022/04/10 11:11:50;;;;;;;;;4.25;4.25;;;;;19.05;31.74;101579.78;4974565;28;45320;-60
2022/04/10 11:14:34;;;;;;;;;3.50;3.50;;;;;19.04;31.74;101572.81;4974789;28;45330;-57
2022/04/10 11:17:15;;;;;;;;;4.50;3.25;;;;;19.05;31.85;101574.53;4973132;28;45264;-59
2022/04/10 11:19:44;;;;;;;;;4.75;2.00;;;;;19.05;31.88;101570.13;4974271;28;45330;-62
2022/04/10 11:22:14;;;;;;;;;3.00;3.00;;;;;19.05;31.83;101564.88;4974261;28;45174;-57
2022/04/10 11:24:40;;;;;;;;;1.00;1.00;;;;;19.05;31.85;101569.28;4974269;28;45541;-60